createdAt,value
2019-03-04T00:01:50.027Z,96610.30
2019-03-04T00:04:18.294Z,96609.89
2019-03-04T00:06:46.558Z,96621.48
2019-03-04T00:09:14.803Z,96614.34
2019-03-04T00:11:43.060Z,96605.47
2019-03-04T00:14:11.322Z,96604.72
2019-03-04T00:16:39.666Z,96598.15
2019-03-04T00:19:07.923Z,96599.50
2019-03-04T00:21:36.188Z,96591.51
2019-03-04T00:24:05.203Z,96588.91
2019-03-04T00:26:33.566Z,96585.62
2019-03-04T00:29:01.947Z,96588.13
2019-03-04T00:31:30.256Z,96582.17
2019-03-04T00:33:59.814Z,96579.27
2019-03-04T00:36:28.162Z,96583.02
2019-03-04T00:38:57.450Z,96577.26
2019-03-04T00:41:25.855Z,96575.50
2019-03-04T00:43:54.100Z,96575.12
2019-03-04T00:46:22.501Z,96571.18
2019-03-04T00:48:50.870Z,96570.62
2019-03-04T00:51:19.171Z,96567.14
2019-03-04T00:53:47.545Z,96557.40
2019-03-04T00:56:20.524Z,96553.73
2019-03-04T00:58:48.797Z,96553.85
2019-03-04T01:01:17.250Z,96549.03
2019-03-04T01:03:45.640Z,96544.89
2019-03-04T01:06:14.003Z,96538.35
2019-03-04T01:08:42.529Z,96543.83
2019-03-04T01:11:10.868Z,96538.92
2019-03-04T01:13:40.884Z,96538.92
2019-03-04T01:16:09.341Z,96529.00
2019-03-04T01:18:39.444Z,96522.73
2019-03-04T01:21:07.865Z,96526.30
2019-03-04T01:23:36.120Z,96519.57
2019-03-04T01:26:04.473Z,96516.28
2019-03-04T01:28:32.860Z,96507.89
2019-03-04T01:31:01.138Z,96512.52
2019-03-04T01:33:29.520Z,96509.14
2019-03-04T01:35:57.879Z,96501.85
2019-03-04T01:38:26.181Z,96499.06
2019-03-04T01:40:54.495Z,96491.45
2019-03-04T01:43:22.790Z,96489.33
2019-03-04T01:45:51.154Z,96476.90
2019-03-04T01:48:19.572Z,96467.29
2019-03-04T01:50:47.926Z,96456.68
2019-03-04T01:53:16.201Z,96450.83
2019-03-04T01:55:44.547Z,96442.06
2019-03-04T01:58:18.868Z,96424.73
2019-03-04T02:00:47.345Z,96428.98
2019-03-04T02:03:17.351Z,96423.88
2019-03-04T02:05:47.301Z,96428.61
2019-03-04T02:08:15.670Z,96418.22
2019-03-04T02:10:44.043Z,96427.24
2019-03-04T02:13:12.434Z,96414.45
2019-03-04T02:15:42.858Z,96423.11
2019-03-04T02:18:15.590Z,96416.84
2019-03-04T02:20:52.951Z,96410.99
2019-03-04T02:23:21.279Z,96416.75
2019-03-04T02:26:04.731Z,96404.91
2019-03-04T02:28:33.031Z,96400.00
2019-03-04T02:31:01.302Z,96389.47
2019-03-04T02:33:29.659Z,96380.80
2019-03-04T02:35:58.023Z,96369.05
2019-03-04T02:38:26.343Z,96370.20
2019-03-04T02:40:54.644Z,96360.84
2019-03-04T02:43:22.961Z,96361.50
2019-03-04T02:45:51.385Z,96355.75
2019-03-04T02:48:19.720Z,96348.70
2019-03-04T02:50:47.982Z,96350.52
2019-03-04T02:53:18.937Z,96344.06
2019-03-04T02:55:47.366Z,96341.56
2019-03-04T02:58:15.673Z,96343.59
2019-03-04T03:00:47.122Z,96332.91
2019-03-04T03:03:15.450Z,96321.64
2019-03-04T03:05:43.810Z,96323.48
2019-03-04T03:08:12.316Z,96326.36
2019-03-04T03:10:40.644Z,96317.23
2019-03-04T03:13:09.001Z,96314.45
2019-03-04T03:15:38.357Z,96306.94
2019-03-04T03:18:06.713Z,96299.34
2019-03-04T03:20:35.075Z,96296.34
2019-03-04T03:23:05.037Z,96293.19
2019-03-04T03:25:33.369Z,96280.77
2019-03-04T03:28:04.748Z,96285.12
2019-03-04T03:30:37.191Z,94977.31
2019-03-04T03:33:05.654Z,96272.34
2019-03-04T03:35:36.934Z,96269.75
2019-03-04T03:38:05.338Z,96272.91
2019-03-04T03:40:33.718Z,96260.31
2019-03-04T03:43:02.064Z,96262.81
2019-03-04T03:45:30.527Z,96263.28
2019-03-04T03:47:58.923Z,96255.30
2019-03-04T03:50:28.859Z,96246.64
2019-03-04T03:52:57.138Z,96237.70
2019-03-04T03:55:25.501Z,96236.64
2019-03-04T03:57:54.060Z,96226.55
2019-03-04T04:00:23.494Z,96224.84
2019-03-04T04:02:53.628Z,96219.66
2019-03-04T04:05:22.071Z,96226.83
2019-03-04T04:07:50.647Z,96229.70
2019-03-04T04:10:19.769Z,96225.30
2019-03-04T04:12:51.238Z,96222.05
2019-03-04T04:15:20.145Z,96221.11
2019-03-04T04:17:48.646Z,96217.82
2019-03-04T04:20:17.082Z,96208.41
2019-03-04T04:22:45.426Z,96206.58
2019-03-04T04:25:16.457Z,96198.43
2019-03-04T04:27:44.855Z,96193.44
2019-03-04T04:30:30.167Z,96191.99
2019-03-04T04:33:00.149Z,96190.55
2019-03-04T04:35:28.493Z,96213.78
2019-03-04T04:37:56.876Z,96186.71
2019-03-04T04:40:29.528Z,96186.21
2019-03-04T04:42:57.948Z,96179.88
2019-03-04T04:45:26.231Z,96178.53
2019-03-04T04:47:54.479Z,96177.97
2019-03-04T04:50:28.181Z,96181.42
2019-03-04T04:52:56.531Z,96178.17
2019-03-04T04:55:26.516Z,96168.09
2019-03-04T04:57:59.286Z,96151.26
2019-03-04T05:00:27.703Z,96144.17
2019-03-04T05:02:57.671Z,96145.80
2019-03-04T05:05:26.051Z,96141.17
2019-03-04T05:07:54.317Z,96145.70
2019-03-04T05:10:24.415Z,96144.25
2019-03-04T05:12:52.683Z,96145.59
2019-03-04T05:15:20.983Z,96131.87
2019-03-04T05:17:49.303Z,96132.47
2019-03-04T05:20:23.316Z,96120.45
2019-03-04T05:22:51.583Z,96122.95
2019-03-04T05:25:19.838Z,96116.52
2019-03-04T05:27:48.092Z,96122.75
2019-03-04T05:30:18.398Z,96116.13
2019-03-04T05:32:46.726Z,96110.56
2019-03-04T05:35:15.012Z,96110.38
2019-03-04T05:37:43.422Z,96102.59
2019-03-04T05:40:14.638Z,96103.94
2019-03-04T05:42:43.086Z,96099.58
2019-03-04T05:45:15.923Z,95719.94
2019-03-04T05:47:44.213Z,96097.16
2019-03-04T05:50:15.002Z,96092.81
2019-03-04T05:52:43.337Z,96092.63
2019-03-04T05:55:13.787Z,96079.36
2019-03-04T05:57:42.033Z,96064.50
2019-03-04T06:00:22.850Z,96071.70
2019-03-04T06:02:54.529Z,96034.31
2019-03-04T06:05:22.783Z,95999.95
2019-03-04T06:07:52.674Z,96012.34
2019-03-04T06:10:21.046Z,96032.38
2019-03-04T06:12:49.413Z,96026.62
2019-03-04T06:15:19.647Z,96010.31
2019-03-04T06:17:47.972Z,96022.28
2019-03-04T06:20:18.265Z,96025.95
2019-03-04T06:22:46.528Z,96003.13
2019-03-04T06:25:18.261Z,96004.59
2019-03-04T06:27:46.515Z,95998.75
2019-03-04T06:30:25.537Z,95995.67
2019-03-04T06:32:53.860Z,95989.36
2019-03-04T06:35:22.140Z,95983.69
2019-03-04T06:37:50.404Z,95979.77
2019-03-04T06:40:19.831Z,95968.27
2019-03-04T06:42:48.098Z,95966.34
2019-03-04T06:45:17.561Z,95956.73
2019-03-04T06:47:45.810Z,95948.60
2019-03-04T06:50:46.194Z,95946.39
2019-03-04T06:53:20.269Z,95933.91
2019-03-04T06:55:57.342Z,95924.34
2019-03-04T06:58:25.594Z,95927.12
2019-03-04T07:00:55.301Z,95925.84
2019-03-04T07:03:23.648Z,95921.23
2019-03-04T07:05:52.060Z,95923.73
2019-03-04T07:08:35.658Z,95915.46
2019-03-04T07:11:04.014Z,95908.63
2019-03-04T07:13:32.322Z,95911.02
2019-03-04T07:16:00.598Z,95907.63
2019-03-04T07:18:28.896Z,95903.47
2019-03-04T07:20:57.243Z,95896.14
2019-03-04T07:23:25.508Z,95883.97
2019-03-04T07:25:53.859Z,95885.55
2019-03-04T07:28:22.258Z,95874.12
2019-03-04T07:30:50.632Z,95871.66
2019-03-04T07:33:18.987Z,95869.93
2019-03-04T07:35:49.861Z,95859.73
2019-03-04T07:38:24.414Z,95861.37
2019-03-04T07:40:52.886Z,95865.57
2019-03-04T07:43:21.340Z,95857.23
2019-03-04T07:45:49.744Z,95858.87
2019-03-04T07:48:18.037Z,95867.48
2019-03-04T07:50:46.415Z,95862.81
2019-03-04T07:53:14.670Z,95863.37
2019-03-04T07:55:43.074Z,95863.05
2019-03-04T07:58:11.396Z,95867.69
2019-03-04T08:00:39.699Z,95879.73
2019-03-04T08:03:07.972Z,95863.91
2019-03-04T08:05:36.234Z,95861.56
2019-03-04T08:08:07.481Z,95859.81
2019-03-04T08:10:48.095Z,95840.89
2019-03-04T08:13:28.658Z,95842.58
2019-03-04T08:15:57.053Z,95855.48
2019-03-04T08:18:25.329Z,95862.55
2019-03-04T08:20:53.592Z,95866.25
2019-03-04T08:23:21.958Z,95868.36
2019-03-04T08:25:50.233Z,95882.20
2019-03-04T08:28:18.506Z,95880.61
2019-03-04T08:30:46.821Z,95886.30
2019-03-04T08:33:15.154Z,95899.34
2019-03-04T08:35:43.479Z,95898.31
2019-03-04T08:38:11.746Z,95891.52
2019-03-04T08:40:39.986Z,95904.08
2019-03-04T08:43:08.339Z,95888.88
2019-03-04T08:45:36.548Z,95892.39
2019-03-04T08:48:04.895Z,95876.41
2019-03-04T08:50:33.162Z,95880.73
2019-03-04T08:53:01.560Z,95878.11
2019-03-04T08:55:29.859Z,95877.67
2019-03-04T08:57:58.257Z,95888.06
2019-03-04T09:00:31.035Z,95890.77
2019-03-04T09:02:59.322Z,95899.48
2019-03-04T09:05:27.594Z,95908.34
2019-03-04T09:07:55.882Z,95913.80
2019-03-04T09:10:29.785Z,95910.61
2019-03-04T09:12:58.050Z,95917.87
2019-03-04T09:15:26.390Z,95915.33
2019-03-04T09:17:54.747Z,95918.66
2019-03-04T09:20:23.140Z,95915.65
2019-03-04T09:22:51.389Z,95915.89
2019-03-04T09:25:30.356Z,95916.33
2019-03-04T09:27:57.302Z,95907.00
2019-03-04T09:30:25.558Z,95920.77
2019-03-04T09:32:53.804Z,95909.78
2019-03-04T09:35:22.182Z,95913.78
2019-03-04T09:37:50.469Z,95906.27
2019-03-04T09:40:27.856Z,95909.80
2019-03-04T09:42:56.120Z,95906.39
2019-03-04T09:45:24.377Z,95898.24
2019-03-04T09:47:52.629Z,95894.88
2019-03-04T09:50:25.088Z,95881.59
2019-03-04T09:52:53.339Z,95901.26
2019-03-04T09:55:21.659Z,95901.16
2019-03-04T09:57:49.981Z,95913.17
2019-03-04T10:00:48.672Z,95918.51
2019-03-04T10:03:41.125Z,95910.90
2019-03-04T10:06:42.803Z,95919.58
2019-03-04T10:09:31.001Z,95915.64
2019-03-04T10:12:20.629Z,95912.91
2019-03-04T10:15:08.312Z,95924.21
2019-03-04T10:17:52.365Z,95935.95
2019-03-04T10:20:56.684Z,95941.11
2019-03-04T10:23:48.574Z,95950.86
2019-03-04T10:26:28.477Z,95944.84
2019-03-04T10:29:03.039Z,95934.75
2019-03-04T10:31:40.293Z,95936.83
2019-03-04T10:34:28.340Z,95937.66
2019-03-04T10:37:20.700Z,95935.52
2019-03-04T10:40:04.038Z,95939.69
2019-03-04T10:42:53.818Z,95953.07
2019-03-04T10:45:49.653Z,95952.59
2019-03-04T10:48:17.905Z,95956.38
2019-03-04T10:50:46.196Z,95970.31
2019-03-04T10:53:14.447Z,95983.03
2019-03-04T10:55:42.731Z,96001.07
2019-03-04T10:58:10.954Z,96007.77
2019-03-04T11:00:39.383Z,96008.69
2019-03-04T11:03:07.649Z,96028.77
2019-03-04T11:05:35.916Z,96021.65
2019-03-04T11:08:04.159Z,96036.56
2019-03-04T11:10:32.439Z,96050.80
2019-03-04T11:13:02.763Z,96058.07
2019-03-04T11:15:31.111Z,96057.55
2019-03-04T11:17:59.506Z,95680.25
2019-03-04T11:20:27.764Z,96051.61
2019-03-04T11:22:56.130Z,96021.17
2019-03-04T11:25:24.582Z,96015.59
2019-03-04T11:27:53.163Z,96003.80
2019-03-04T11:30:29.646Z,96010.59
2019-03-04T11:32:58.060Z,96016.59
2019-03-04T11:35:29.342Z,96024.14
2019-03-04T11:37:57.778Z,96026.23
2019-03-04T11:40:38.873Z,96033.61
2019-03-04T11:43:07.475Z,96023.11
2019-03-04T11:45:35.874Z,96061.89
2019-03-04T11:48:04.196Z,96071.16
2019-03-04T11:50:32.530Z,96047.05
2019-03-04T11:53:00.789Z,96027.64
2019-03-04T11:55:31.734Z,96017.38
2019-03-04T11:58:00.196Z,96000.31
2019-03-04T12:00:30.812Z,96015.42
2019-03-04T12:02:59.187Z,95991.31
2019-03-04T12:05:27.531Z,95986.54
2019-03-04T12:07:55.964Z,95983.70
2019-03-04T12:10:24.374Z,95975.23
2019-03-04T12:12:52.870Z,95978.48
2019-03-04T12:15:21.554Z,95985.17
2019-03-04T12:17:49.852Z,96005.13
2019-03-04T12:20:18.662Z,96006.13
2019-03-04T12:22:47.127Z,96000.38
2019-03-04T12:25:20.078Z,96021.52
2019-03-04T12:27:48.498Z,96030.45
2019-03-04T12:30:22.476Z,96024.25
2019-03-04T12:32:51.899Z,96027.02
2019-03-04T12:35:21.048Z,96033.24
2019-03-04T12:37:49.769Z,96049.46
2019-03-04T12:40:24.310Z,96047.03
2019-03-04T12:42:52.676Z,96060.34
2019-03-04T12:45:33.720Z,96039.28
2019-03-04T12:47:53.588Z,96048.27
2019-03-04T12:50:30.172Z,96040.94
2019-03-04T12:52:59.043Z,95421.27
2019-03-04T12:55:27.350Z,96055.61
2019-03-04T12:57:55.845Z,96052.02
2019-03-04T13:00:32.228Z,96037.39
2019-03-04T13:03:00.635Z,96076.57
2019-03-04T13:05:29.114Z,96049.23
2019-03-04T13:07:57.579Z,96037.64
2019-03-04T13:10:27.604Z,96020.05
2019-03-04T13:12:56.116Z,96018.79
2019-03-04T13:15:32.159Z,96018.58
2019-03-04T13:18:06.267Z,96012.62
2019-03-04T13:20:34.749Z,96015.34
2019-03-04T13:23:03.299Z,96021.06
2019-03-04T13:25:31.885Z,96031.84
2019-03-04T13:28:07.785Z,96019.53
2019-03-04T13:30:38.381Z,96024.94
2019-03-04T13:33:06.660Z,96006.89
2019-03-04T13:35:39.496Z,96005.88
2019-03-04T13:38:07.990Z,96013.73
2019-03-04T13:40:36.556Z,96032.21
2019-03-04T13:43:05.097Z,95995.72
2019-03-04T13:45:33.554Z,96010.34
2019-03-04T13:48:02.067Z,96021.66
2019-03-04T13:50:31.195Z,96006.59
2019-03-04T13:52:59.733Z,96002.16
2019-03-04T13:55:29.843Z,96001.48
2019-03-04T13:57:58.335Z,95998.41
2019-03-04T14:00:37.599Z,95988.22
2019-03-04T14:03:06.249Z,95969.39
2019-03-04T14:05:34.507Z,95988.64
2019-03-04T14:08:02.851Z,95989.98
2019-03-04T14:10:36.729Z,96000.48
2019-03-04T14:13:05.082Z,96002.47
2019-03-04T14:15:42.619Z,95994.55
2019-03-04T14:18:12.514Z,95988.97
2019-03-04T14:20:40.850Z,95988.52
2019-03-04T14:23:09.107Z,95968.75
2019-03-04T14:25:37.372Z,95966.16
2019-03-04T14:28:05.750Z,95977.53
2019-03-04T14:30:34.103Z,95976.62
2019-03-04T14:33:02.334Z,95977.88
2019-03-04T14:35:30.577Z,95977.08
2019-03-04T14:37:58.882Z,95971.34
2019-03-04T14:40:27.179Z,95963.75
2019-03-04T14:42:57.080Z,95942.41
2019-03-04T14:45:26.187Z,95936.06
2019-03-04T14:47:56.253Z,95964.47
2019-03-04T14:50:24.774Z,95958.12
2019-03-04T14:52:53.161Z,95966.11
2019-03-04T14:55:26.080Z,95975.09
2019-03-04T14:57:54.638Z,95973.54
2019-03-04T15:00:32.028Z,95966.67
2019-03-04T15:03:00.490Z,95981.58
2019-03-04T15:05:28.796Z,95979.41
2019-03-04T15:07:57.258Z,95988.95
2019-03-04T15:10:25.576Z,95966.95
2019-03-04T15:12:53.848Z,95978.16
2019-03-04T15:15:27.155Z,95979.80
2019-03-04T15:17:55.553Z,96006.86
2019-03-04T15:20:25.335Z,95968.77
2019-03-04T15:22:53.594Z,95972.46
2019-03-04T15:25:27.320Z,95950.58
2019-03-04T15:27:58.826Z,95956.23
2019-03-04T15:30:27.566Z,95966.20
2019-03-04T15:32:55.802Z,95955.78
2019-03-04T15:35:24.197Z,95942.75
2019-03-04T15:37:52.706Z,95934.23
2019-03-04T15:40:21.161Z,95935.08
2019-03-04T15:42:49.501Z,95933.29
2019-03-04T15:45:18.026Z,95945.27
2019-03-04T15:47:46.927Z,95936.32
2019-03-04T15:50:15.361Z,95924.83
2019-03-04T15:52:45.306Z,95925.13
2019-03-04T15:55:14.790Z,95934.88
2019-03-04T15:57:43.143Z,95912.05
2019-03-04T16:00:13.795Z,95903.41
2019-03-04T16:02:42.221Z,95889.36
2019-03-04T16:05:15.357Z,95893.52
2019-03-04T16:07:45.446Z,95891.94
2019-03-04T16:10:29.711Z,95889.58
2019-03-04T16:12:59.714Z,95867.12
2019-03-04T16:15:27.959Z,95877.09
2019-03-04T16:17:56.217Z,95870.22
2019-03-04T16:20:24.475Z,95868.76
2019-03-04T16:22:55.924Z,95866.80
2019-03-04T16:25:24.188Z,95863.14
2019-03-04T16:27:58.205Z,95858.40
2019-03-04T16:30:26.480Z,95865.05
2019-03-04T16:32:54.729Z,95854.56
2019-03-04T16:35:22.973Z,95858.39
2019-03-04T16:37:51.232Z,95856.20
2019-03-04T16:40:20.823Z,95873.38
2019-03-04T16:42:49.098Z,95874.73
2019-03-04T16:45:21.467Z,95867.71
2019-03-04T16:47:49.880Z,95880.56
2019-03-04T16:50:20.376Z,95885.85
2019-03-04T16:52:55.076Z,95887.17
2019-03-04T16:55:23.317Z,95880.61
2019-03-04T16:57:51.588Z,95876.14
2019-03-04T17:00:20.875Z,95873.11
2019-03-04T17:02:49.516Z,95881.50
2019-03-04T17:05:18.839Z,95862.05
2019-03-04T17:07:47.770Z,95868.67
2019-03-04T17:10:18.699Z,95870.95
2019-03-04T17:12:46.945Z,95889.34
2019-03-04T17:15:23.302Z,95895.08
2019-03-04T17:17:51.631Z,95898.61
2019-03-04T17:20:20.020Z,95903.66
2019-03-04T17:22:48.272Z,95935.34
2019-03-04T17:25:23.180Z,95933.13
2019-03-04T17:27:51.547Z,95939.85
2019-03-04T17:30:21.058Z,95927.91
2019-03-04T17:32:49.451Z,95950.88
2019-03-04T17:35:22.823Z,95947.98
2019-03-04T17:37:51.138Z,95959.58
2019-03-04T17:40:26.436Z,95958.89
2019-03-04T17:42:54.683Z,95968.20
2019-03-04T17:45:24.623Z,95996.52
2019-03-04T17:47:52.896Z,95983.10
2019-03-04T17:50:24.405Z,95996.52
2019-03-04T17:52:52.664Z,96015.87
2019-03-04T17:55:20.907Z,96009.44
2019-03-04T17:57:49.156Z,96053.76
2019-03-04T18:00:18.648Z,96070.68
2019-03-04T18:02:46.902Z,96123.10
2019-03-04T18:05:15.219Z,96151.08
2019-03-04T18:07:43.467Z,96165.93
2019-03-04T18:10:17.813Z,96150.50
2019-03-04T18:12:46.233Z,96152.66
2019-03-04T18:15:32.202Z,96156.94
2019-03-04T18:18:00.455Z,96146.47
2019-03-04T18:20:34.554Z,96140.42
2019-03-04T18:22:58.704Z,96146.80
2019-03-04T18:25:38.869Z,96155.98
2019-03-04T18:28:16.155Z,96154.36
2019-03-04T18:30:53.338Z,96179.11
2019-03-04T18:33:41.356Z,96171.58
2019-03-04T18:36:21.201Z,96173.67
2019-03-04T18:38:58.802Z,96173.17
2019-03-04T18:41:51.123Z,96182.02
2019-03-04T18:44:28.412Z,96202.98
2019-03-04T18:47:15.098Z,96209.62
2019-03-04T18:49:43.373Z,96222.11
2019-03-04T18:52:11.634Z,96222.23
2019-03-04T18:54:39.880Z,96220.30
2019-03-04T18:57:08.139Z,96241.47
2019-03-04T18:59:36.390Z,96243.11
2019-03-04T19:02:04.669Z,96244.82
2019-03-04T19:04:32.932Z,96261.26
2019-03-04T19:07:01.196Z,96236.67
2019-03-04T19:09:29.471Z,96250.77
2019-03-04T19:11:57.739Z,96250.37
2019-03-04T19:14:25.971Z,96251.72
2019-03-04T19:16:54.243Z,96247.30
2019-03-04T19:19:22.498Z,96260.74
2019-03-04T19:21:50.745Z,96279.09
2019-03-04T19:24:18.995Z,96291.75
2019-03-04T19:26:47.301Z,96302.41
2019-03-04T19:29:15.573Z,96318.84
2019-03-04T19:31:43.854Z,96321.84
2019-03-04T19:34:12.102Z,96324.70
2019-03-04T19:36:40.368Z,96335.57
2019-03-04T19:39:08.740Z,96323.16
2019-03-04T19:41:37.317Z,96322.59
2019-03-04T19:44:05.868Z,96325.42
2019-03-04T19:46:37.173Z,96328.49
2019-03-04T19:49:05.746Z,96358.88
2019-03-04T19:51:34.050Z,96362.98
2019-03-04T19:54:02.360Z,96374.41
2019-03-04T19:56:30.651Z,96369.86
2019-03-04T19:58:58.910Z,96389.50
2019-03-04T20:01:27.153Z,96405.36
2019-03-04T20:03:55.446Z,96415.12
2019-03-04T20:06:23.730Z,96414.66
2019-03-04T20:08:52.044Z,96415.23
2019-03-04T20:11:20.298Z,96416.32
2019-03-04T20:13:48.551Z,96422.09
2019-03-04T20:16:16.835Z,96422.24
2019-03-04T20:18:45.109Z,96432.33
2019-03-04T20:21:13.381Z,96441.94
2019-03-04T20:23:41.649Z,96449.20
2019-03-04T20:26:13.443Z,96451.75
2019-03-04T20:28:41.791Z,96454.14
2019-03-04T20:31:10.078Z,96466.55
2019-03-04T20:33:38.355Z,96470.69
2019-03-04T20:36:06.612Z,96473.08
2019-03-04T20:38:41.708Z,96470.84
2019-03-04T20:41:09.967Z,96465.64
2019-03-04T20:43:38.246Z,96480.86
2019-03-04T20:46:06.839Z,96473.27
2019-03-04T20:48:35.079Z,96488.13
2019-03-04T20:51:03.368Z,96488.13
2019-03-04T20:53:31.641Z,96525.86
2019-03-04T20:56:00.682Z,96501.69
2019-03-04T20:58:29.010Z,96507.67
2019-03-04T21:00:57.279Z,96503.48
2019-03-04T21:03:34.578Z,96508.25
2019-03-04T21:05:56.731Z,96506.68
2019-03-04T21:08:25.059Z,96508.08
2019-03-04T21:10:53.383Z,96514.97
2019-03-04T21:13:35.085Z,96520.22
2019-03-04T21:15:55.727Z,96509.17
2019-03-04T21:18:23.996Z,96518.60
2019-03-04T21:20:52.338Z,96519.37
2019-03-04T21:23:20.585Z,96518.02
2019-03-04T21:25:58.171Z,96520.73
2019-03-04T21:29:02.701Z,96520.50
2019-03-04T21:31:50.691Z,96522.27
2019-03-04T21:34:31.311Z,96524.98
2019-03-04T21:37:05.750Z,96522.59
2019-03-04T21:39:42.796Z,96527.98
2019-03-04T21:42:23.767Z,96519.63
2019-03-04T21:45:04.303Z,96526.52
2019-03-04T21:47:35.853Z,96518.30
2019-03-04T21:50:06.913Z,96530.77
2019-03-04T21:52:41.236Z,96536.27
2019-03-04T21:55:12.753Z,96531.77
2019-03-04T21:57:44.212Z,96533.89
2019-03-04T22:00:15.858Z,96535.50
2019-03-04T22:02:49.998Z,96544.66
2019-03-04T22:05:18.925Z,96538.55
2019-03-04T22:07:48.767Z,96530.62
2019-03-04T22:10:17.108Z,96547.55
2019-03-04T22:12:45.952Z,96536.62
2019-03-04T22:15:14.394Z,96552.17
2019-03-04T22:17:42.665Z,96554.19
2019-03-04T22:20:14.093Z,96557.70
2019-03-04T22:22:42.396Z,96565.52
2019-03-04T22:25:14.279Z,96569.88
2019-03-04T22:27:42.492Z,96567.38
2019-03-04T22:30:16.892Z,96581.52
2019-03-04T22:32:45.141Z,96580.05
2019-03-04T22:35:17.158Z,96582.31
2019-03-04T22:37:45.289Z,96585.45
2019-03-04T22:40:29.275Z,96606.41
2019-03-04T22:42:57.519Z,96579.67
2019-03-04T22:45:25.793Z,96592.89
2019-03-04T22:47:54.058Z,96592.89
2019-03-04T22:50:22.879Z,96595.64
2019-03-04T22:52:51.155Z,96604.72
2019-03-04T22:55:31.400Z,96601.50
2019-03-04T22:57:59.702Z,96602.09
2019-03-04T23:00:53.991Z,96611.07
2019-03-04T23:03:24.545Z,96616.34
2019-03-04T23:06:02.044Z,96620.07
2019-03-04T23:08:30.339Z,96604.11
2019-03-04T23:10:58.596Z,96605.97
2019-03-04T23:13:36.005Z,96636.52
2019-03-04T23:16:04.904Z,96612.59
2019-03-04T23:18:33.512Z,96614.58
2019-03-04T23:21:01.739Z,96612.59
2019-03-04T23:23:30.020Z,96613.84
2019-03-04T23:25:58.276Z,96607.33
2019-03-04T23:28:26.520Z,96610.34
2019-03-04T23:30:54.791Z,96619.28
2019-03-04T23:33:24.670Z,96617.16
2019-03-04T23:35:52.949Z,96622.52
2019-03-04T23:38:21.193Z,96618.64
2019-03-04T23:40:49.554Z,96617.98
2019-03-04T23:43:17.880Z,96615.38
2019-03-04T23:45:46.176Z,96616.74
2019-03-04T23:48:14.435Z,96617.37
2019-03-04T23:50:42.678Z,96623.38
2019-03-04T23:53:10.933Z,96626.82
2019-03-04T23:55:39.220Z,96635.18
2019-03-04T23:58:07.475Z,96627.70
